createdAt,value
2018-12-16T00:06:43.067Z,31.60
2018-12-16T00:16:45.570Z,25.33
2018-12-16T00:26:59.902Z,30.23
2018-12-16T00:37:02.425Z,31.17
2018-12-16T00:47:04.887Z,30.13
2018-12-16T00:57:07.388Z,39.73
2018-12-16T01:07:09.880Z,31.47
2018-12-16T01:17:12.379Z,30.23
2018-12-16T01:27:14.888Z,25.53
2018-12-16T01:37:17.356Z,28.60
2018-12-16T01:47:19.817Z,27.47
2018-12-16T01:57:22.359Z,27.27
2018-12-16T02:07:24.821Z,27.20
2018-12-16T02:17:27.283Z,31.47
2018-12-16T02:27:29.751Z,26.70
2018-12-16T02:37:32.214Z,26.73
2018-12-16T02:47:34.672Z,30.33
2018-12-16T02:57:37.153Z,27.80
2018-12-16T03:07:39.644Z,27.63
2018-12-16T03:17:42.140Z,28.57
2018-12-16T03:27:44.610Z,29.43
2018-12-16T03:37:47.699Z,27.27
2018-12-16T03:47:50.159Z,29.10
2018-12-16T03:57:52.658Z,26.83
2018-12-16T04:07:55.115Z,28.47
2018-12-16T04:17:57.615Z,26.33
2018-12-16T04:28:00.119Z,28.73
2018-12-16T04:38:02.575Z,29.57
2018-12-16T04:48:05.079Z,26.93
2018-12-16T04:58:07.540Z,27.33
2018-12-16T05:08:10.132Z,28.47
2018-12-16T05:18:12.599Z,28.93
2018-12-16T05:28:15.119Z,30.23
2018-12-16T05:38:17.600Z,27.17
2018-12-16T05:48:20.092Z,29.60
2018-12-16T05:58:22.671Z,29.07
2018-12-16T06:08:25.122Z,30.40
2018-12-16T06:18:27.700Z,33.87
2018-12-16T06:28:30.167Z,27.10
2018-12-16T06:38:32.632Z,31.93
2018-12-16T06:48:35.123Z,30.43
2018-12-16T06:58:37.578Z,33.77
2018-12-16T07:08:40.052Z,32.83
2018-12-16T07:18:42.523Z,33.70
2018-12-16T07:28:44.983Z,32.70
2018-12-16T07:38:47.548Z,34.33
2018-12-16T07:48:50.043Z,33.37
2018-12-16T07:58:52.498Z,30.50
2018-12-16T08:08:55.051Z,33.13
2018-12-16T08:18:57.503Z,33.50
2018-12-16T08:28:59.984Z,36.27
2018-12-16T08:39:03.467Z,40.73
2018-12-16T08:49:05.967Z,32.83
2018-12-16T08:59:08.431Z,34.03
2018-12-16T09:09:11.126Z,35.03
2018-12-16T09:19:13.628Z,35.80
2018-12-16T09:29:16.091Z,35.37
2018-12-16T09:39:18.554Z,36.50
2018-12-16T09:49:21.016Z,39.17
2018-12-16T09:59:23.663Z,36.87
2018-12-16T10:09:26.472Z,38.43
2018-12-16T10:19:29.140Z,39.70
2018-12-16T10:29:31.874Z,38.77
2018-12-16T10:39:34.331Z,41.77
2018-12-16T10:49:37.010Z,40.37
2018-12-16T10:59:39.598Z,41.13
2018-12-16T11:09:42.075Z,38.33
2018-12-16T11:19:44.594Z,40.77
2018-12-16T11:29:47.087Z,42.10
2018-12-16T11:39:49.744Z,41.00
2018-12-16T11:49:52.201Z,44.13
2018-12-16T11:59:54.897Z,41.40
2018-12-16T12:09:57.375Z,49.13
2018-12-16T12:20:00.684Z,41.90
2018-12-16T12:30:03.788Z,44.20
2018-12-16T12:40:06.906Z,49.70
2018-12-16T12:50:09.536Z,49.37
2018-12-16T13:00:13.272Z,44.00
2018-12-16T13:10:15.739Z,44.93
2018-12-16T13:20:18.207Z,42.47
2018-12-16T13:30:20.877Z,42.33
2018-12-16T13:40:23.341Z,52.13
2018-12-16T13:50:25.839Z,46.40
2018-12-16T14:00:28.308Z,44.37
2018-12-16T14:10:30.789Z,51.07
2018-12-16T14:20:33.259Z,52.57
2018-12-16T14:30:35.780Z,59.27
2018-12-16T14:40:38.251Z,52.43
2018-12-16T14:50:40.703Z,50.17
2018-12-16T15:00:43.172Z,50.27
2018-12-16T15:10:45.675Z,48.83
2018-12-16T15:20:48.175Z,48.00
2018-12-16T15:38:09.564Z,49.43
2018-12-16T15:48:12.143Z,46.90
2018-12-16T15:58:14.608Z,51.33
2018-12-16T16:08:17.155Z,48.13
2018-12-16T16:18:43.795Z,55.10
2018-12-16T16:28:46.259Z,50.63
2018-12-16T16:38:48.728Z,52.57
2018-12-16T16:48:51.197Z,54.07
2018-12-16T16:58:53.667Z,55.03
2018-12-16T17:08:56.135Z,56.00
2018-12-16T17:19:00.157Z,47.87
2018-12-16T17:29:02.779Z,52.27
2018-12-16T17:39:06.859Z,47.87
2018-12-16T17:49:09.427Z,54.23
2018-12-16T17:59:17.826Z,50.93
2018-12-16T18:09:16.532Z,56.70
2018-12-16T18:19:19.156Z,56.23
2018-12-16T18:29:21.650Z,59.63
2018-12-16T18:39:24.312Z,57.27
2018-12-16T18:49:26.784Z,56.30
2018-12-16T18:59:29.469Z,52.33
2018-12-16T19:09:31.936Z,55.03
2018-12-16T19:19:34.639Z,52.33
2018-12-16T19:29:37.107Z,64.30
2018-12-16T19:39:39.567Z,61.40
2018-12-16T19:49:42.032Z,54.90
2018-12-16T19:59:44.511Z,54.53
2018-12-16T20:09:46.968Z,55.13
2018-12-16T20:19:49.428Z,58.10
2018-12-16T20:29:51.899Z,58.53
2018-12-16T20:39:54.366Z,60.47
2018-12-16T20:49:56.827Z,52.27
2018-12-16T20:59:59.295Z,48.63
2018-12-16T21:10:01.791Z,59.70
2018-12-16T21:20:05.963Z,43.80
2018-12-16T21:30:09.143Z,45.10
2018-12-16T21:40:11.607Z,46.03
2018-12-16T21:50:14.080Z,45.03
2018-12-16T22:00:16.554Z,45.87
2018-12-16T22:10:19.021Z,48.60
2018-12-16T22:20:21.475Z,50.70
2018-12-16T22:30:23.996Z,47.90
2018-12-16T22:40:26.905Z,47.87
2018-12-16T22:50:29.376Z,47.63
2018-12-16T23:00:33.805Z,57.90
2018-12-16T23:10:36.329Z,50.90
2018-12-16T23:20:38.859Z,56.40
2018-12-16T23:30:41.364Z,52.70
2018-12-16T23:40:43.827Z,48.47
2018-12-16T23:50:46.287Z,48.53
